San Pablo, Philippines
Current Conditions -  °F | °C
As of 4:00 PM on Monday 24 Nov 2014 (Local Time) from RPLL Reporting Station
Broken Clouds Broken Clouds  
Wind Chill: 86°   Ceiling: 8000
Heat Index: 97°   Visibility: 6mi
Dew Point: 77°   Wind: 9mph
Humidity: 74%   Direction: 130°SE
Pressure: 29.8"   Gusts: NA
Location:  14.07°N, 121.33°E
Report Text: RPLL 240800Z 13008KT 090V190 9999 FEW023CB SCT025 BKN080 30/25 Q1009 NOSIG RMK A2980 CB N W TO SW AND OVHD
Loading
Personal Weather Stations






























Interactive Weather Map New forecast layout! Learn more

10-Day Weather Forecast

Advertisements
Track Severe Weather on mobile